Sparrevohn Lrrs Airport
PASV : now visible

Airfield :











YOU CAN JOIN US ON...

 
LOGIN :

Register | Disclaimer

   EN    FR    IT 

 









Legend :    VFR   Marginal VFR   IFR   Intensive IFR   Very Intensive IFR
Visi :
Ceiling :
>= 8 km
>= 3000ft
5 to 8 km
1000 to 3000 ft
1500m to 5 km
500 to 1000 ft
800 to 1500m
200 to 500 ft
< 800m
< 200 ft
Symbols :   Thunderstorms  Fog  Heavy snow  Heavy precipitations  Wind > 20 kt






- Airport Elevation : 1585 ft
- IATA code : SVW


PASV - Sparrevohn Lrrs

CURRENT METAR :
  • 301955Z AUTO 00000KT 10SM CLR M14/M21 A2992 RMK AO2 SLP188 T11451209

EXPIRED METARs :
  • 301855Z AUTO 00000KT 10SM CLR M16/M21 A2993 RMK AO2 SLP192 T11621214
  • 301755Z AUTO 00000KT 10SM CLR M17/M22 A2993 RMK AO2 SLP193 T11731221 11148 21185 52005

Expired Forecast.



MET'MAP, your aeronautical weather chart ! - Copyright ORBIFLY December 2007 - Disclaimer

ORBIFLY MET'MAP TEAM :

Programming & Development : Alexandra Zaïnal
Concept & original design : Baudouin d'Aumeries
Assistance for programming : Marc-Olivier Méhu
Technical & hardware support : Manuel Goepfert

Contact : metmap@orbifly.com




SOURCES & CREDITS :

   NOAA       Earth
Advisory